createdAt,value
2024-03-13T00:00:44.750Z,18.17
2024-03-13T00:03:11.766Z,18.05
2024-03-13T00:05:39.234Z,18.23
2024-03-13T00:08:08.392Z,17.95
2024-03-13T00:10:35.349Z,18.77
2024-03-13T00:13:02.347Z,17.98
2024-03-13T00:15:29.375Z,18.98
2024-03-13T00:17:56.319Z,17.23
2024-03-13T00:20:23.127Z,19.38
2024-03-13T00:22:49.995Z,19.85
2024-03-13T00:25:17.044Z,18.83
2024-03-13T00:27:47.110Z,18.73
2024-03-13T00:30:14.704Z,19.08
2024-03-13T00:32:43.420Z,17.92
2024-03-13T00:35:10.652Z,18.55
2024-03-13T00:37:37.492Z,19.33
2024-03-13T00:40:05.139Z,18.73
2024-03-13T00:42:32.093Z,18.92
2024-03-13T00:44:59.248Z,18.40
2024-03-13T00:47:26.090Z,19.17
2024-03-13T00:49:55.953Z,18.77
2024-03-13T00:52:25.589Z,19.05
2024-03-13T00:54:52.490Z,18.85
2024-03-13T00:57:20.183Z,19.48
2024-03-13T00:59:47.614Z,19.90
2024-03-13T01:02:14.951Z,19.20
2024-03-13T01:04:44.279Z,19.15
2024-03-13T01:07:11.614Z,18.63
2024-03-13T01:09:39.606Z,19.40
2024-03-13T01:12:07.520Z,18.95
2024-03-13T01:14:34.679Z,18.48
2024-03-13T01:17:03.656Z,19.30
2024-03-13T01:19:34.571Z,19.67
2024-03-13T01:22:07.097Z,18.25
2024-03-13T01:24:34.765Z,19.02
2024-03-13T01:27:01.761Z,20.30
2024-03-13T01:29:28.683Z,18.63
2024-03-13T01:31:58.766Z,18.05
2024-03-13T01:34:26.161Z,19.42
2024-03-13T01:37:12.268Z,19.95
2024-03-13T01:39:40.006Z,18.77
2024-03-13T01:42:25.374Z,20.00
2024-03-13T01:45:30.391Z,19.23
2024-03-13T01:48:17.855Z,19.35
2024-03-13T01:51:05.350Z,18.63
2024-03-13T01:53:53.493Z,20.75
2024-03-13T01:56:28.355Z,18.83
2024-03-13T01:59:26.529Z,19.17
2024-03-13T02:02:12.148Z,18.42
2024-03-13T02:04:39.027Z,18.25
2024-03-13T02:07:05.972Z,18.33
2024-03-13T02:09:32.865Z,17.38
2024-03-13T02:11:59.687Z,19.40
2024-03-13T02:14:26.494Z,19.42
2024-03-13T02:16:53.776Z,18.88
2024-03-13T02:19:21.701Z,17.85
2024-03-13T02:21:49.137Z,17.90
2024-03-13T02:24:16.137Z,19.10
2024-03-13T02:26:42.984Z,18.35
2024-03-13T02:29:10.154Z,18.02
2024-03-13T02:31:37.456Z,19.13
2024-03-13T02:34:05.996Z,18.73
2024-03-13T02:36:33.060Z,18.13
2024-03-13T02:39:00.687Z,17.58
2024-03-13T02:41:27.710Z,18.67
2024-03-13T02:43:58.814Z,17.42
2024-03-13T02:46:26.694Z,19.45
2024-03-13T02:48:54.320Z,19.38
2024-03-13T02:51:24.050Z,19.45
2024-03-13T02:53:50.866Z,18.52
2024-03-13T02:56:17.672Z,20.23
2024-03-13T02:58:47.627Z,19.23
2024-03-13T03:01:14.452Z,18.95
2024-03-13T03:03:41.553Z,19.17
2024-03-13T03:06:08.505Z,18.25
2024-03-13T03:08:38.563Z,20.10
2024-03-13T03:11:05.661Z,19.75
2024-03-13T03:13:33.157Z,19.58
2024-03-13T03:16:03.587Z,20.05
2024-03-13T03:18:30.451Z,20.52
2024-03-13T03:20:59.159Z,20.25
2024-03-13T03:23:25.986Z,19.00
2024-03-13T03:25:52.743Z,20.45
2024-03-13T03:28:20.464Z,19.35
2024-03-13T03:30:49.715Z,20.13
2024-03-13T03:33:19.464Z,20.40
2024-03-13T03:35:46.326Z,21.25
2024-03-13T03:38:13.184Z,20.40
2024-03-13T03:40:40.009Z,19.50
2024-03-13T03:43:06.973Z,20.13
2024-03-13T03:45:33.789Z,19.90
2024-03-13T03:48:07.295Z,19.75
2024-03-13T03:50:38.476Z,20.15
2024-03-13T03:53:05.360Z,20.67
2024-03-13T03:55:32.393Z,20.33
2024-03-13T03:57:59.388Z,19.73
2024-03-13T04:00:26.257Z,18.73
2024-03-13T04:02:53.604Z,18.23
2024-03-13T04:05:21.222Z,18.80
2024-03-13T04:07:50.325Z,17.75
2024-03-13T04:10:17.464Z,19.42
2024-03-13T04:12:45.605Z,20.00
2024-03-13T04:17:41.137Z,19.65
2024-03-13T04:20:19.690Z,18.23
2024-03-13T04:22:47.167Z,21.00
2024-03-13T04:25:16.183Z,18.05
2024-03-13T04:27:43.372Z,18.33
2024-03-13T04:30:10.405Z,18.83
2024-03-13T04:32:37.563Z,21.02
2024-03-13T04:35:04.984Z,21.33
2024-03-13T04:37:32.450Z,20.08
2024-03-13T04:40:01.183Z,20.58
2024-03-13T04:42:28.982Z,20.60
2024-03-13T04:44:57.258Z,20.58
2024-03-13T04:47:26.165Z,21.30
2024-03-13T04:49:53.016Z,20.58
2024-03-13T04:52:21.591Z,19.95
2024-03-13T04:54:48.553Z,22.27
2024-03-13T04:57:15.606Z,24.20
2024-03-13T04:59:42.473Z,17.98
2024-03-13T05:02:09.393Z,15.35
2024-03-13T05:04:36.659Z,14.20
2024-03-13T05:07:04.085Z,15.30
2024-03-13T05:09:31.258Z,14.15
2024-03-13T05:11:58.215Z,14.50
2024-03-13T05:14:25.226Z,17.70
2024-03-13T05:16:52.269Z,16.30
2024-03-13T05:19:20.289Z,15.63
2024-03-13T05:24:16.945Z,16.67
2024-03-13T05:26:44.020Z,15.85
2024-03-13T05:29:11.314Z,13.48
2024-03-13T05:31:38.215Z,13.60
2024-03-13T05:34:06.201Z,11.27
2024-03-13T05:36:37.061Z,10.20
2024-03-13T05:39:06.166Z,8.95
2024-03-13T05:41:35.904Z,9.55
2024-03-13T05:44:02.944Z,9.43
2024-03-13T05:46:29.769Z,9.70
2024-03-13T05:48:56.770Z,12.02
2024-03-13T05:51:24.298Z,14.55
2024-03-13T05:53:51.262Z,15.43
2024-03-13T05:56:18.064Z,13.60
2024-03-13T05:58:45.094Z,14.63
2024-03-13T06:01:15.875Z,15.98
2024-03-13T06:03:42.937Z,16.10
2024-03-13T06:06:12.676Z,17.05
2024-03-13T06:08:39.790Z,17.27
2024-03-13T06:11:06.744Z,18.30
2024-03-13T06:13:33.796Z,16.38
2024-03-13T06:16:01.635Z,16.95
2024-03-13T06:18:29.001Z,16.13
2024-03-13T06:20:55.867Z,17.27
2024-03-13T06:23:25.014Z,19.45
2024-03-13T06:25:53.644Z,20.63
2024-03-13T06:28:39.273Z,19.40
2024-03-13T06:31:06.127Z,19.17
2024-03-13T06:33:33.551Z,21.50
2024-03-13T06:36:01.260Z,20.67
2024-03-13T06:38:28.112Z,21.42
2024-03-13T06:40:55.213Z,19.98
2024-03-13T06:43:22.028Z,21.73
2024-03-13T06:45:49.433Z,22.65
2024-03-13T06:48:16.668Z,24.10
2024-03-13T06:50:44.387Z,27.67
2024-03-13T06:53:11.400Z,26.88
2024-03-13T06:55:38.599Z,29.77
2024-03-13T06:58:06.087Z,33.03
2024-03-13T07:00:33.976Z,32.60
2024-03-13T07:05:30.179Z,33.88
2024-03-13T07:07:57.807Z,34.85
2024-03-13T07:10:24.886Z,38.60
2024-03-13T07:12:51.722Z,40.25
2024-03-13T07:15:18.531Z,39.78
2024-03-13T07:17:45.537Z,41.88
2024-03-13T07:20:12.469Z,40.38
2024-03-13T07:22:40.011Z,41.92
2024-03-13T07:25:10.768Z,42.78
2024-03-13T07:27:37.980Z,42.35
2024-03-13T07:30:06.408Z,41.58
2024-03-13T07:32:33.247Z,41.10
2024-03-13T07:35:00.057Z,40.22
2024-03-13T07:37:27.117Z,40.83
2024-03-13T07:39:54.029Z,37.78
2024-03-13T07:42:20.961Z,38.90
2024-03-13T07:44:47.907Z,36.30
2024-03-13T07:47:14.741Z,35.90
2024-03-13T07:49:41.890Z,32.63
2024-03-13T07:52:08.790Z,33.70
2024-03-13T07:54:38.618Z,31.80
2024-03-13T07:57:09.891Z,30.33
2024-03-13T07:59:37.183Z,30.77
2024-03-13T08:02:05.546Z,29.65
2024-03-13T08:04:32.712Z,28.05
2024-03-13T09:07:41.653Z,21.67
2024-03-13T09:10:09.249Z,21.52
2024-03-13T09:12:36.168Z,21.63
2024-03-13T09:15:04.577Z,20.38
2024-03-13T09:17:31.537Z,22.08
2024-03-13T09:19:58.525Z,19.95
2024-03-13T09:22:25.321Z,20.67
2024-03-13T09:24:52.284Z,19.77
2024-03-13T09:27:19.344Z,19.88
2024-03-13T09:29:46.423Z,19.83
2024-03-13T09:32:13.205Z,18.83
2024-03-13T09:34:41.184Z,17.90
2024-03-13T09:39:37.938Z,19.43
2024-03-13T09:42:16.190Z,18.05
2024-03-13T09:44:45.478Z,17.65
2024-03-13T09:47:13.915Z,18.52
2024-03-13T09:49:45.279Z,19.00
2024-03-13T09:52:16.334Z,19.58
2024-03-13T09:54:44.514Z,17.25
2024-03-13T09:57:12.925Z,18.27
2024-03-13T10:02:15.741Z,17.65
2024-03-13T10:04:43.617Z,17.00
2024-03-13T10:07:19.817Z,17.48
2024-03-13T10:09:50.147Z,16.92
2024-03-13T10:12:26.427Z,16.23
2024-03-13T10:14:54.231Z,16.90
2024-03-13T10:17:24.911Z,16.90
2024-03-13T10:19:55.286Z,16.90
2024-03-13T10:22:22.942Z,15.82
2024-03-13T10:24:52.843Z,15.85
2024-03-13T10:27:21.602Z,15.82
2024-03-13T10:29:54.098Z,15.88
2024-03-13T10:32:21.760Z,14.93
2024-03-13T10:34:50.239Z,14.63
2024-03-13T10:37:18.375Z,13.50
2024-03-13T10:42:12.269Z,14.27
2024-03-13T10:44:39.654Z,13.97
2024-03-13T10:47:08.616Z,14.35
2024-03-13T10:49:35.535Z,13.63
2024-03-13T10:52:09.660Z,13.65
2024-03-13T10:54:36.637Z,13.45
2024-03-13T10:57:03.593Z,14.10
2024-03-13T10:59:30.673Z,15.57
2024-03-13T11:01:57.737Z,15.27
2024-03-13T11:04:27.937Z,15.15
2024-03-13T11:06:55.039Z,15.00
2024-03-13T11:09:22.801Z,15.35
2024-03-13T11:11:53.170Z,16.15
2024-03-13T11:14:28.676Z,15.25
2024-03-13T11:16:59.244Z,14.88
2024-03-13T11:19:33.363Z,15.00
2024-03-13T11:22:04.646Z,15.20
2024-03-13T11:24:33.631Z,15.07
2024-03-13T11:27:12.117Z,13.93
2024-03-13T11:29:44.721Z,14.48
2024-03-13T11:32:15.793Z,15.80
2024-03-13T11:34:43.295Z,14.40
2024-03-13T11:37:12.507Z,13.70
2024-03-13T11:39:40.625Z,14.75
2024-03-13T11:42:14.329Z,13.43
2024-03-13T11:44:50.641Z,13.77
2024-03-13T11:47:23.988Z,14.20
2024-03-13T11:50:00.346Z,14.27
2024-03-13T11:52:27.349Z,14.23
2024-03-13T11:54:57.871Z,13.75
2024-03-13T11:57:26.147Z,12.60
2024-03-13T11:59:57.629Z,12.80
2024-03-13T12:02:33.399Z,13.50
2024-03-13T12:05:07.716Z,13.73
2024-03-13T12:07:38.277Z,13.75
2024-03-13T12:10:05.434Z,14.40
2024-03-13T12:12:33.244Z,13.70
2024-03-13T12:15:01.377Z,13.52
2024-03-13T12:19:55.116Z,13.40
2024-03-13T12:22:22.003Z,12.88
2024-03-13T12:24:48.838Z,13.45
2024-03-13T12:27:16.167Z,13.55
2024-03-13T12:29:43.117Z,12.80
2024-03-13T12:32:10.418Z,13.98
2024-03-13T12:34:37.565Z,13.23
2024-03-13T12:37:09.235Z,13.80
2024-03-13T12:39:37.907Z,14.40
2024-03-13T12:42:06.100Z,14.02
2024-03-13T12:44:33.514Z,12.52
2024-03-13T12:47:02.031Z,13.10
2024-03-13T12:49:31.383Z,13.07
2024-03-13T12:52:00.407Z,13.45
2024-03-13T12:54:29.168Z,13.63
2024-03-13T12:56:56.616Z,13.30
2024-03-13T12:59:24.052Z,13.10
2024-03-13T13:01:51.689Z,12.23
2024-03-13T13:04:22.565Z,12.52
2024-03-13T13:06:49.717Z,12.40
2024-03-13T13:09:16.915Z,12.73
2024-03-13T13:11:45.906Z,13.63
2024-03-13T13:14:13.209Z,13.52
2024-03-13T13:16:40.886Z,13.85
2024-03-13T13:19:11.872Z,13.35
2024-03-13T13:21:39.249Z,13.73
2024-03-13T13:24:07.129Z,13.27
2024-03-13T13:26:34.174Z,12.75
2024-03-13T13:31:31.979Z,12.68
2024-03-13T13:33:58.886Z,13.23
2024-03-13T13:36:25.809Z,12.82
2024-03-13T13:38:52.759Z,12.70
2024-03-13T13:41:21.461Z,12.50
2024-03-13T13:43:48.581Z,11.73
2024-03-13T13:46:16.427Z,11.80
2024-03-13T13:51:11.484Z,11.75
2024-03-13T13:53:38.509Z,12.02
2024-03-13T13:56:05.952Z,11.63
2024-03-13T13:58:33.067Z,11.55
2024-03-13T14:01:00.971Z,11.63
2024-03-13T14:03:28.777Z,12.32
2024-03-13T14:08:22.667Z,12.18
2024-03-13T14:10:58.415Z,11.52
2024-03-13T14:13:27.598Z,12.45
2024-03-13T14:15:54.370Z,12.20
2024-03-13T14:18:21.747Z,13.45
2024-03-13T14:20:51.409Z,13.27
2024-03-13T14:23:18.568Z,13.32
2024-03-13T14:25:45.739Z,13.02
2024-03-13T14:28:16.228Z,13.63
2024-03-13T14:30:43.080Z,13.48
2024-03-13T14:33:09.969Z,13.98
2024-03-13T14:35:37.543Z,13.20
2024-03-13T14:38:04.582Z,11.88
2024-03-13T14:40:31.387Z,13.00
2024-03-13T14:42:58.339Z,13.20
2024-03-13T14:45:25.233Z,13.00
2024-03-13T14:47:52.618Z,13.45
2024-03-13T14:50:21.299Z,12.40
2024-03-13T14:53:03.245Z,12.65
2024-03-13T14:55:33.739Z,12.30
2024-03-13T14:58:01.028Z,12.88
2024-03-13T15:00:28.422Z,13.60
2024-03-13T15:05:24.726Z,13.18
2024-03-13T15:07:51.619Z,13.68
2024-03-13T15:10:23.504Z,13.25
2024-03-13T15:12:51.021Z,13.38
2024-03-13T15:15:17.896Z,12.55
2024-03-13T15:17:46.424Z,12.87
2024-03-13T15:20:14.368Z,12.50
2024-03-13T15:22:41.562Z,12.27
2024-03-13T15:25:10.883Z,12.30
2024-03-13T15:27:39.907Z,12.32
2024-03-13T15:30:08.047Z,11.90
2024-03-13T15:32:35.717Z,12.10
2024-03-13T15:35:07.190Z,12.43
2024-03-13T15:37:37.352Z,12.00
2024-03-13T15:40:15.984Z,12.70
2024-03-13T15:42:42.870Z,12.43
2024-03-13T15:45:12.828Z,12.20
2024-03-13T15:47:43.395Z,12.73
2024-03-13T15:50:20.519Z,12.70
2024-03-13T15:52:55.681Z,12.35
2024-03-13T15:55:22.569Z,12.40
2024-03-13T15:57:49.444Z,12.77
2024-03-13T16:00:19.604Z,11.95
2024-03-13T16:02:53.015Z,12.10
2024-03-13T16:05:20.826Z,11.75
2024-03-13T16:07:55.555Z,11.98
2024-03-13T16:10:22.393Z,12.00
2024-03-13T16:12:49.376Z,12.80
2024-03-13T16:15:16.394Z,11.60
2024-03-13T16:17:43.475Z,12.00
2024-03-13T16:20:12.885Z,11.85
2024-03-13T16:22:42.820Z,12.38
2024-03-13T16:25:09.712Z,12.32
2024-03-13T16:27:36.598Z,12.13
2024-03-13T16:30:09.808Z,12.20
2024-03-13T16:32:36.827Z,12.18
2024-03-13T16:35:03.883Z,11.40
2024-03-13T16:37:30.712Z,12.30
2024-03-13T16:39:58.245Z,11.93
2024-03-13T16:42:25.100Z,12.18
2024-03-13T16:44:52.676Z,11.30
2024-03-13T16:47:20.642Z,11.63
2024-03-13T16:49:47.510Z,11.27
2024-03-13T16:52:15.560Z,11.10
2024-03-13T16:57:09.458Z,11.73
2024-03-13T16:59:36.264Z,11.85
2024-03-13T17:02:03.118Z,11.55
2024-03-13T17:04:29.962Z,11.52
2024-03-13T17:06:56.802Z,11.23
2024-03-13T17:09:23.818Z,11.32
2024-03-13T17:11:50.892Z,11.23
2024-03-13T17:14:17.738Z,11.10
2024-03-13T17:16:45.002Z,12.40
2024-03-13T17:19:11.956Z,11.40
2024-03-13T17:21:38.824Z,11.75
2024-03-13T17:24:06.342Z,11.95
2024-03-13T17:26:33.768Z,12.77
2024-03-13T17:29:00.585Z,12.10
2024-03-13T17:31:28.336Z,11.52
2024-03-13T17:33:55.299Z,12.10
2024-03-13T17:36:23.245Z,12.32
2024-03-13T17:38:50.303Z,13.00
2024-03-13T17:41:17.113Z,13.30
2024-03-13T17:43:44.069Z,13.57
2024-03-13T17:46:12.088Z,14.05
2024-03-13T17:48:39.095Z,13.23
2024-03-13T17:51:10.710Z,12.60
2024-03-13T17:53:37.526Z,12.93
2024-03-13T17:56:05.461Z,12.68
2024-03-13T17:58:32.518Z,12.32
2024-03-13T18:01:00.633Z,13.65
2024-03-13T18:03:27.524Z,13.57
2024-03-13T18:05:54.654Z,14.63
2024-03-13T18:08:21.558Z,14.75
2024-03-13T18:10:48.603Z,13.38
2024-03-13T18:13:15.496Z,13.80
2024-03-13T18:15:44.221Z,13.15
2024-03-13T18:18:11.622Z,12.60
2024-03-13T18:20:39.367Z,13.43
2024-03-13T18:23:07.057Z,14.13
2024-03-13T18:25:33.956Z,13.38
2024-03-13T18:28:00.943Z,13.65
2024-03-13T18:30:28.679Z,13.05
2024-03-13T18:32:55.821Z,13.48
2024-03-13T18:35:22.737Z,12.95
2024-03-13T18:37:49.682Z,13.48
2024-03-13T18:40:17.500Z,13.50
2024-03-13T18:45:12.132Z,13.63
2024-03-13T18:47:39.423Z,13.80
2024-03-13T18:50:09.701Z,13.23
2024-03-13T18:52:43.354Z,13.60
2024-03-13T18:55:11.892Z,13.07
2024-03-13T18:57:38.802Z,12.60
2024-03-13T19:00:09.086Z,12.90
2024-03-13T19:02:36.972Z,12.80
2024-03-13T19:05:14.161Z,12.98
2024-03-13T19:07:46.913Z,12.35
2024-03-13T19:10:14.218Z,12.95
2024-03-13T19:12:41.741Z,14.60
2024-03-13T19:15:09.036Z,13.68
2024-03-13T19:17:36.114Z,12.97
2024-03-13T19:20:03.960Z,13.60
2024-03-13T19:22:30.746Z,12.65
2024-03-13T19:24:57.833Z,13.70
2024-03-13T19:27:24.769Z,15.02
2024-03-13T19:29:51.629Z,12.88
2024-03-13T19:32:18.516Z,13.13
2024-03-13T19:34:45.542Z,12.65
2024-03-13T19:37:13.717Z,13.52
2024-03-13T19:42:08.192Z,13.65
2024-03-13T19:44:35.084Z,12.80
2024-03-13T19:47:02.600Z,13.77
2024-03-13T19:49:29.433Z,13.90
2024-03-13T19:51:58.370Z,12.80
2024-03-13T19:54:25.515Z,12.30
2024-03-13T19:56:52.577Z,13.15
2024-03-13T19:59:19.444Z,13.52
2024-03-13T20:01:46.250Z,13.32
2024-03-13T20:04:14.582Z,13.20
2024-03-13T20:06:44.507Z,13.40
2024-03-13T20:09:19.382Z,13.63
2024-03-13T20:11:46.441Z,14.25
2024-03-13T20:14:16.309Z,13.73
2024-03-13T20:16:44.915Z,14.35
2024-03-13T20:19:11.765Z,14.05
2024-03-13T20:21:38.728Z,15.05
2024-03-13T20:24:05.907Z,15.55
2024-03-13T20:26:39.325Z,16.17
2024-03-13T20:29:06.320Z,14.93
2024-03-13T20:31:33.127Z,15.60
2024-03-13T20:34:01.595Z,15.93
2024-03-13T20:36:28.738Z,16.02
2024-03-13T20:38:55.745Z,16.30
2024-03-13T20:41:22.614Z,18.85
2024-03-13T20:43:49.449Z,19.20
2024-03-13T20:46:16.405Z,18.27
2024-03-13T20:48:43.624Z,15.82
2024-03-13T20:51:10.512Z,15.00
2024-03-13T20:53:37.476Z,15.32
2024-03-13T20:56:06.672Z,16.45
2024-03-13T20:58:33.721Z,15.73
2024-03-13T21:01:00.617Z,16.25
2024-03-13T21:03:27.481Z,16.70
2024-03-13T21:05:54.382Z,16.48
2024-03-13T21:08:21.279Z,16.40
2024-03-13T21:10:48.207Z,15.82
2024-03-13T21:13:15.160Z,15.65
2024-03-13T21:15:46.462Z,16.85
2024-03-13T21:18:30.668Z,15.38
2024-03-13T21:20:57.999Z,16.73
2024-03-13T21:23:25.115Z,15.35
2024-03-13T21:25:52.322Z,15.35
2024-03-13T21:28:19.207Z,15.75
2024-03-13T21:30:46.038Z,15.50
2024-03-13T21:33:13.549Z,15.70
2024-03-13T21:35:40.520Z,15.15
2024-03-13T21:38:07.565Z,15.57
2024-03-13T21:40:35.183Z,14.52
2024-03-13T21:43:02.047Z,14.80
2024-03-13T21:45:29.790Z,14.43
2024-03-13T21:47:56.832Z,14.35
2024-03-13T21:50:23.727Z,13.65
2024-03-13T21:52:50.510Z,13.77
2024-03-13T21:55:17.387Z,13.60
2024-03-13T21:57:46.176Z,13.13
2024-03-13T22:00:15.910Z,13.02
2024-03-13T22:02:43.237Z,14.32
2024-03-13T22:05:10.145Z,14.05
2024-03-13T22:07:37.074Z,13.20
2024-03-13T22:10:04.891Z,14.10
2024-03-13T22:12:31.940Z,14.25
2024-03-13T22:14:59.198Z,14.25
2024-03-13T22:17:26.078Z,12.85
2024-03-13T22:19:52.960Z,12.52
2024-03-13T22:22:19.834Z,12.15
2024-03-13T22:24:47.969Z,12.00
2024-03-13T22:29:42.653Z,12.02
2024-03-13T22:32:09.606Z,11.85
2024-03-13T22:34:36.444Z,12.23
2024-03-13T22:37:04.407Z,12.05
2024-03-13T22:39:31.514Z,11.77
2024-03-13T22:41:58.412Z,11.50
2024-03-13T22:44:25.229Z,10.85
2024-03-13T22:46:52.085Z,11.05
2024-03-13T22:49:19.225Z,10.02
2024-03-13T22:51:46.040Z,10.40
2024-03-13T22:54:13.223Z,9.30
2024-03-13T22:56:40.228Z,7.57
2024-03-13T22:59:07.220Z,9.10
2024-03-13T23:01:34.051Z,8.85
2024-03-13T23:04:00.914Z,8.95
2024-03-13T23:06:28.206Z,8.30
2024-03-13T23:08:56.199Z,7.90
2024-03-13T23:11:23.037Z,7.75
2024-03-13T23:13:49.905Z,7.40
2024-03-13T23:16:16.879Z,7.47
2024-03-13T23:18:43.739Z,7.78
2024-03-13T23:21:10.693Z,7.05
2024-03-13T23:23:38.966Z,7.40
2024-03-13T23:26:06.316Z,8.00
2024-03-13T23:28:34.239Z,8.25
2024-03-13T23:31:01.104Z,7.57
2024-03-13T23:33:28.444Z,7.25
2024-03-13T23:35:55.461Z,8.20
2024-03-13T23:38:22.491Z,8.27
2024-03-13T23:40:49.459Z,8.52
2024-03-13T23:43:16.435Z,9.10
2024-03-13T23:45:43.405Z,9.07
2024-03-13T23:48:11.986Z,9.50
2024-03-13T23:50:39.736Z,9.45
2024-03-13T23:53:07.088Z,10.13
2024-03-13T23:55:34.746Z,9.73
2024-03-13T23:58:01.836Z,10.82
